TNCM METAR and TAF | Updated Today

TNCM METAR

Princess Juliana International Airport

Observation time: 37 min. ago

TNCM 061800Z 09011KT 060V120 9999 FEW018 28/20 Q1019 NOSIG

Need help? Read our tutorial on how to read METARs or read the parsed version below.

Princess Juliana International Airport (TNCM) METAR

  • Weather conditions on Mon, 06 Feb 2023 18:00:00 +0000 (37 min. ago):
  • Present conditions: Dry
  • Clouds: A few at 549 meters
  • Visibility: Greater than 10 km
  • Wind: 90 degrees at 11 knots
  • Temperature: 28 celsius
  • Dew point: 20 celsius
  • Pressure: 1019 millibars
  • Remarks: None


Useful to know...

TNCM TAF

Princess Juliana International Airport

TNCM 061600Z 0618/0718 08013KT 9999 SCT018 PROB30 TEMPO 0701/0707 09018G28KT FEW016 BKN035
Observation time: 2:37 hr. ago
Need help? Read our tutorial on how to read TAFs or read the parsed version below.

Parsed version of TAF for Princess Juliana International Airport (TNCM)

  • From 06 February at 18:00 UTC, to day 07 of the month at 18:00 UTC
  • Clouds: Scattered at 549 meters
  • Visibility: Greater than 10 km
  • Wind: 80 degrees at 13
  • Expected to arise temporarily, from 07 February at 01:00 UTC, to day 07 of the month at 07:00 UTC
    Probability of 30%
  • Clouds: A few at 488 meters; broken sky at 1067 meters
  • Wind: 90 degrees at 18